This is the latest recevied weather packets stored in our database for station/object K5RNB. If no packets are shown the sender has not sent any weather packets the latest 10 day(s).
| Time | Temp. | Humidity | Pressure | Rain* | Wind** | Luminosity | Snow |
|---|---|---|---|---|---|---|---|
| 1776900573 | 23.33° C | 82% | 1011.2 hPa | 0 mm | - | - | - |
| 1776900273 | 23.33° C | 83% | 1011.4 hPa | 0 mm | - | - | - |
| 1776896373 | 21.67° C | 86% | 1012.2 hPa | 0 mm | - | - | - |
| 1776895174 | 21.11° C | 86% | 1012.6 hPa | 0 mm | - | - | - |
| 1776893674 | 21.11° C | 85% | 1013 hPa | 0 mm | - | - | - |
| 1776892173 | 21.11° C | 86% | 1013.4 hPa | 0 mm | - | - | - |
| 1776889774 | 20.56° C | 86% | 1014.1 hPa | 0 mm | - | - | - |
| 1776888574 | 20.56° C | 86% | 1014.4 hPa | 0 mm | - | - | - |
| 1776887073 | 20° C | 87% | 1014.9 hPa | 0 mm | - | - | - |
| 1776886474 | 20° C | 87% | 1015 hPa | 0 mm | - | - | - |
| 1776886173 | 20° C | 87% | 1014.9 hPa | 0 mm | - | - | - |
| 1776884674 | 19.44° C | 88% | 1015.1 hPa | 0 mm | - | - | - |
| 1776884374 | 19.44° C | 88% | 1015.3 hPa | 0 mm | - | - | - |
| 1776882574 | 18.89° C | 88% | 1015.6 hPa | 0 mm | - | - | - |
| 1776881374 | 18.33° C | 88% | 1015.9 hPa | 0 mm | - | - | - |
| 1776878375 | 17.78° C | 89% | 1016.7 hPa | 0 mm | - | - | - |
| 1776876875 | 17.78° C | 89% | 1017 hPa | 0 mm | - | - | - |
| 1776875975 | 17.22° C | 89% | 1017 hPa | 0 mm | - | - | - |
| 1776872975 | 17.22° C | 90% | 1017.2 hPa | 0 mm | - | - | - |
| 1776872676 | 16.67° C | 90% | 1017.2 hPa | 0 mm | - | - | - |
* Rain latest hour (hover to see other rain measurements)
** Current wind speed in m/s (hover to see current wind gust speed)